sensor_id;sensor_type;location;lat;lon;timestamp;P1;durP1;ratioP1;P2;durP2;ratioP2
57071;SDS011;42956;51.366;11.298;2024-01-07T00:01:27;44.55;;;20.08;;
57071;SDS011;42956;51.366;11.298;2024-01-07T00:03:59;40.38;;;20.52;;
57071;SDS011;42956;51.366;11.298;2024-01-07T00:06:29;44.30;;;21.55;;
57071;SDS011;42956;51.366;11.298;2024-01-07T00:08:59;36.92;;;19.25;;
57071;SDS011;42956;51.366;11.298;2024-01-07T00:11:29;41.88;;;19.67;;
57071;SDS011;42956;51.366;11.298;2024-01-07T00:13:59;34.63;;;18.38;;
57071;SDS011;42956;51.366;11.298;2024-01-07T00:16:29;37.88;;;19.27;;
57071;SDS011;42956;51.366;11.298;2024-01-07T00:19:02;39.83;;;18.73;;
57071;SDS011;42956;51.366;11.298;2024-01-07T00:21:32;42.05;;;19.88;;
57071;SDS011;42956;51.366;11.298;2024-01-07T00:24:02;38.55;;;20.15;;
57071;SDS011;42956;51.366;11.298;2024-01-07T00:26:31;36.25;;;19.15;;
57071;SDS011;42956;51.366;11.298;2024-01-07T00:29:02;30.92;;;16.88;;
57071;SDS011;42956;51.366;11.298;2024-01-07T00:31:31;33.40;;;18.38;;
57071;SDS011;42956;51.366;11.298;2024-01-07T00:34:04;29.83;;;15.90;;
57071;SDS011;42956;51.366;11.298;2024-01-07T00:36:34;30.02;;;16.08;;
57071;SDS011;42956;51.366;11.298;2024-01-07T00:39:05;25.77;;;14.35;;
57071;SDS011;42956;51.366;11.298;2024-01-07T00:41:36;24.60;;;14.98;;
57071;SDS011;42956;51.366;11.298;2024-01-07T00:44:05;30.83;;;15.63;;
57071;SDS011;42956;51.366;11.298;2024-01-07T00:46:35;28.00;;;14.65;;
57071;SDS011;42956;51.366;11.298;2024-01-07T00:49:08;27.38;;;15.00;;
57071;SDS011;42956;51.366;11.298;2024-01-07T00:51:38;30.27;;;16.77;;
57071;SDS011;42956;51.366;11.298;2024-01-07T00:54:08;29.08;;;15.55;;
57071;SDS011;42956;51.366;11.298;2024-01-07T00:56:38;29.55;;;17.13;;
57071;SDS011;42956;51.366;11.298;2024-01-07T00:59:08;29.63;;;16.25;;
57071;SDS011;42956;51.366;11.298;2024-01-07T01:01:38;21.13;;;12.32;;
57071;SDS011;42956;51.366;11.298;2024-01-07T01:04:11;19.35;;;12.05;;
57071;SDS011;42956;51.366;11.298;2024-01-07T01:09:12;19.10;;;10.23;;
57071;SDS011;42956;51.366;11.298;2024-01-07T01:11:41;20.27;;;11.63;;
57071;SDS011;42956;51.366;11.298;2024-01-07T01:14:12;19.40;;;11.65;;
57071;SDS011;42956;51.366;11.298;2024-01-07T01:16:42;22.30;;;12.38;;
57071;SDS011;42956;51.366;11.298;2024-01-07T01:19:14;22.17;;;12.88;;
57071;SDS011;42956;51.366;11.298;2024-01-07T01:21:44;21.23;;;12.27;;
57071;SDS011;42956;51.366;11.298;2024-01-07T01:24:15;21.73;;;13.73;;
57071;SDS011;42956;51.366;11.298;2024-01-07T01:26:45;20.52;;;11.98;;
57071;SDS011;42956;51.366;11.298;2024-01-07T01:29:14;20.55;;;12.98;;
57071;SDS011;42956;51.366;11.298;2024-01-07T01:31:44;24.40;;;12.82;;
57071;SDS011;42956;51.366;11.298;2024-01-07T01:34:17;19.52;;;12.30;;
57071;SDS011;42956;51.366;11.298;2024-01-07T01:39:17;22.50;;;11.85;;
57071;SDS011;42956;51.366;11.298;2024-01-07T01:41:47;24.10;;;11.70;;
57071;SDS011;42956;51.366;11.298;2024-01-07T01:44:17;18.88;;;11.05;;
57071;SDS011;42956;51.366;11.298;2024-01-07T01:46:47;24.40;;;11.85;;
57071;SDS011;42956;51.366;11.298;2024-01-07T01:49:20;20.95;;;12.20;;
57071;SDS011;42956;51.366;11.298;2024-01-07T01:51:50;17.02;;;10.90;;
57071;SDS011;42956;51.366;11.298;2024-01-07T01:54:20;19.02;;;11.25;;
57071;SDS011;42956;51.366;11.298;2024-01-07T01:56:51;20.95;;;11.48;;
57071;SDS011;42956;51.366;11.298;2024-01-07T01:59:21;24.58;;;13.13;;
57071;SDS011;42956;51.366;11.298;2024-01-07T02:01:51;19.83;;;11.65;;
57071;SDS011;42956;51.366;11.298;2024-01-07T02:04:24;27.30;;;14.30;;
57071;SDS011;42956;51.366;11.298;2024-01-07T02:06:55;28.40;;;15.18;;
57071;SDS011;42956;51.366;11.298;2024-01-07T02:09:25;22.58;;;15.05;;
57071;SDS011;42956;51.366;11.298;2024-01-07T02:12:02;34.00;;;16.35;;
57071;SDS011;42956;51.366;11.298;2024-01-07T02:14:32;27.77;;;15.75;;
57071;SDS011;42956;51.366;11.298;2024-01-07T02:17:02;26.58;;;15.02;;
57071;SDS011;42956;51.366;11.298;2024-01-07T02:19:34;27.02;;;13.90;;
57071;SDS011;42956;51.366;11.298;2024-01-07T02:22:05;27.23;;;14.88;;
57071;SDS011;42956;51.366;11.298;2024-01-07T02:24:37;28.10;;;16.27;;
57071;SDS011;42956;51.366;11.298;2024-01-07T02:27:07;31.20;;;16.60;;
57071;SDS011;42956;51.366;11.298;2024-01-07T02:29:37;26.13;;;15.70;;
57071;SDS011;42956;51.366;11.298;2024-01-07T02:32:07;26.60;;;14.30;;
57071;SDS011;42956;51.366;11.298;2024-01-07T02:34:37;31.75;;;16.90;;
57071;SDS011;42956;51.366;11.298;2024-01-07T02:37:07;35.42;;;17.75;;
57071;SDS011;42956;51.366;11.298;2024-01-07T02:39:39;33.13;;;15.75;;
57071;SDS011;42956;51.366;11.298;2024-01-07T02:42:15;25.33;;;15.55;;
57071;SDS011;42956;51.366;11.298;2024-01-07T02:44:45;26.98;;;15.75;;
57071;SDS011;42956;51.366;11.298;2024-01-07T02:47:15;30.15;;;15.98;;
57071;SDS011;42956;51.366;11.298;2024-01-07T02:49:44;28.98;;;15.93;;
57071;SDS011;42956;51.366;11.298;2024-01-07T02:52:15;21.98;;;14.23;;
57071;SDS011;42956;51.366;11.298;2024-01-07T02:54:47;26.83;;;15.52;;
57071;SDS011;42956;51.366;11.298;2024-01-07T02:59:47;25.63;;;13.90;;
57071;SDS011;42956;51.366;11.298;2024-01-07T03:02:17;26.27;;;15.48;;
57071;SDS011;42956;51.366;11.298;2024-01-07T03:04:47;25.98;;;14.77;;
57071;SDS011;42956;51.366;11.298;2024-01-07T03:07:17;27.08;;;15.50;;
57071;SDS011;42956;51.366;11.298;2024-01-07T03:09:50;35.78;;;14.95;;
57071;SDS011;42956;51.366;11.298;2024-01-07T03:14:50;26.17;;;15.18;;
57071;SDS011;42956;51.366;11.298;2024-01-07T03:17:20;28.90;;;14.55;;
57071;SDS011;42956;51.366;11.298;2024-01-07T03:19:51;28.55;;;15.90;;
57071;SDS011;42956;51.366;11.298;2024-01-07T03:22:20;33.63;;;15.73;;
57071;SDS011;42956;51.366;11.298;2024-01-07T03:24:53;28.50;;;15.23;;
57071;SDS011;42956;51.366;11.298;2024-01-07T03:27:23;33.60;;;15.95;;
57071;SDS011;42956;51.366;11.298;2024-01-07T03:29:53;29.23;;;15.95;;
57071;SDS011;42956;51.366;11.298;2024-01-07T03:32:22;24.90;;;14.63;;
57071;SDS011;42956;51.366;11.298;2024-01-07T03:34:52;23.02;;;14.55;;
57071;SDS011;42956;51.366;11.298;2024-01-07T03:37:22;29.20;;;13.50;;
57071;SDS011;42956;51.366;11.298;2024-01-07T03:42:27;23.58;;;13.45;;
57071;SDS011;42956;51.366;11.298;2024-01-07T03:47:27;23.45;;;13.45;;
57071;SDS011;42956;51.366;11.298;2024-01-07T03:49:59;21.80;;;13.10;;
57071;SDS011;42956;51.366;11.298;2024-01-07T03:52:29;24.50;;;14.25;;
57071;SDS011;42956;51.366;11.298;2024-01-07T03:54:59;27.45;;;12.85;;
57071;SDS011;42956;51.366;11.298;2024-01-07T03:57:33;19.88;;;10.38;;
57071;SDS011;42956;51.366;11.298;2024-01-07T04:02:33;14.77;;;9.13;;
57071;SDS011;42956;51.366;11.298;2024-01-07T04:05:03;19.33;;;11.25;;
57071;SDS011;42956;51.366;11.298;2024-01-07T04:07:34;18.42;;;10.48;;
57071;SDS011;42956;51.366;11.298;2024-01-07T04:10:04;17.25;;;11.00;;
57071;SDS011;42956;51.366;11.298;2024-01-07T04:12:37;18.50;;;10.32;;
57071;SDS011;42956;51.366;11.298;2024-01-07T04:17:36;19.20;;;11.00;;
57071;SDS011;42956;51.366;11.298;2024-01-07T04:20:07;19.90;;;10.27;;
57071;SDS011;42956;51.366;11.298;2024-01-07T04:22:37;17.83;;;8.93;;
57071;SDS011;42956;51.366;11.298;2024-01-07T04:25:07;16.70;;;9.75;;
57071;SDS011;42956;51.366;11.298;2024-01-07T04:27:40;18.95;;;10.90;;
57071;SDS011;42956;51.366;11.298;2024-01-07T04:30:10;19.88;;;9.93;;
57071;SDS011;42956;51.366;11.298;2024-01-07T04:32:40;20.30;;;10.88;;
57071;SDS011;42956;51.366;11.298;2024-01-07T04:35:10;19.25;;;9.18;;
57071;SDS011;42956;51.366;11.298;2024-01-07T04:37:41;18.05;;;9.63;;
57071;SDS011;42956;51.366;11.298;2024-01-07T04:40:12;18.40;;;9.48;;
57071;SDS011;42956;51.366;11.298;2024-01-07T04:42:44;20.38;;;9.05;;
57071;SDS011;42956;51.366;11.298;2024-01-07T04:47:44;16.13;;;9.88;;
57071;SDS011;42956;51.366;11.298;2024-01-07T04:50:14;17.55;;;9.45;;
57071;SDS011;42956;51.366;11.298;2024-01-07T04:52:47;15.20;;;9.15;;
57071;SDS011;42956;51.366;11.298;2024-01-07T04:55:17;14.10;;;8.50;;
57071;SDS011;42956;51.366;11.298;2024-01-07T04:57:50;16.42;;;8.70;;
57071;SDS011;42956;51.366;11.298;2024-01-07T05:02:50;15.77;;;7.57;;
57071;SDS011;42956;51.366;11.298;2024-01-07T05:05:20;12.75;;;7.13;;
57071;SDS011;42956;51.366;11.298;2024-01-07T05:07:50;15.43;;;7.65;;
57071;SDS011;42956;51.366;11.298;2024-01-07T05:10:20;11.65;;;7.35;;
57071;SDS011;42956;51.366;11.298;2024-01-07T05:12:52;18.98;;;6.60;;
57071;SDS011;42956;51.366;11.298;2024-01-07T05:15:24;13.35;;;6.40;;
57071;SDS011;42956;51.366;11.298;2024-01-07T05:17:54;10.60;;;5.80;;
57071;SDS011;42956;51.366;11.298;2024-01-07T05:20:24;11.85;;;6.22;;
57071;SDS011;42956;51.366;11.298;2024-01-07T05:22:54;9.75;;;6.22;;
57071;SDS011;42956;51.366;11.298;2024-01-07T05:25:24;10.20;;;6.63;;
57071;SDS011;42956;51.366;11.298;2024-01-07T05:27:57;11.55;;;6.20;;
57071;SDS011;42956;51.366;11.298;2024-01-07T05:30:27;11.90;;;6.15;;
57071;SDS011;42956;51.366;11.298;2024-01-07T05:32:57;11.57;;;5.70;;
57071;SDS011;42956;51.366;11.298;2024-01-07T05:35:27;8.95;;;5.53;;
57071;SDS011;42956;51.366;11.298;2024-01-07T05:37:57;16.05;;;7.32;;
57071;SDS011;42956;51.366;11.298;2024-01-07T05:40:27;13.48;;;7.22;;
57071;SDS011;42956;51.366;11.298;2024-01-07T05:42:59;11.80;;;7.30;;
57071;SDS011;42956;51.366;11.298;2024-01-07T05:45:29;17.23;;;7.78;;
57071;SDS011;42956;51.366;11.298;2024-01-07T05:47:59;14.88;;;7.18;;
57071;SDS011;42956;51.366;11.298;2024-01-07T05:50:29;14.85;;;7.95;;
57071;SDS011;42956;51.366;11.298;2024-01-07T05:52:59;12.80;;;7.80;;
57071;SDS011;42956;51.366;11.298;2024-01-07T05:55:29;17.60;;;7.97;;
57071;SDS011;42956;51.366;11.298;2024-01-07T05:58:01;13.38;;;7.93;;
57071;SDS011;42956;51.366;11.298;2024-01-07T06:00:32;20.17;;;8.77;;
57071;SDS011;42956;51.366;11.298;2024-01-07T06:03:02;15.05;;;8.45;;
57071;SDS011;42956;51.366;11.298;2024-01-07T06:05:31;16.02;;;8.65;;
57071;SDS011;42956;51.366;11.298;2024-01-07T06:08:01;21.15;;;8.77;;
57071;SDS011;42956;51.366;11.298;2024-01-07T06:10:31;13.93;;;9.10;;
57071;SDS011;42956;51.366;11.298;2024-01-07T06:13:04;21.10;;;8.85;;
57071;SDS011;42956;51.366;11.298;2024-01-07T06:15:34;17.42;;;9.85;;
57071;SDS011;42956;51.366;11.298;2024-01-07T06:18:05;17.27;;;8.77;;
57071;SDS011;42956;51.366;11.298;2024-01-07T06:20:35;15.75;;;8.93;;
57071;SDS011;42956;51.366;11.298;2024-01-07T06:23:04;22.00;;;9.13;;
57071;SDS011;42956;51.366;11.298;2024-01-07T06:25:35;18.20;;;8.30;;
57071;SDS011;42956;51.366;11.298;2024-01-07T06:28:09;14.85;;;8.73;;
57071;SDS011;42956;51.366;11.298;2024-01-07T06:30:39;18.33;;;8.02;;
57071;SDS011;42956;51.366;11.298;2024-01-07T06:33:09;16.25;;;9.10;;
57071;SDS011;42956;51.366;11.298;2024-01-07T06:35:40;14.60;;;8.55;;
57071;SDS011;42956;51.366;11.298;2024-01-07T06:38:10;14.63;;;7.45;;
57071;SDS011;42956;51.366;11.298;2024-01-07T06:40:40;10.88;;;6.57;;
57071;SDS011;42956;51.366;11.298;2024-01-07T06:43:13;14.05;;;7.60;;
57071;SDS011;42956;51.366;11.298;2024-01-07T06:45:44;13.02;;;7.78;;
57071;SDS011;42956;51.366;11.298;2024-01-07T06:48:14;14.32;;;7.93;;
57071;SDS011;42956;51.366;11.298;2024-01-07T06:50:44;13.90;;;7.05;;
57071;SDS011;42956;51.366;11.298;2024-01-07T06:53:14;12.35;;;7.20;;
57071;SDS011;42956;51.366;11.298;2024-01-07T06:55:44;10.07;;;6.45;;
57071;SDS011;42956;51.366;11.298;2024-01-07T06:58:16;12.90;;;6.85;;
57071;SDS011;42956;51.366;11.298;2024-01-07T07:00:46;11.15;;;6.45;;
57071;SDS011;42956;51.366;11.298;2024-01-07T07:03:17;13.25;;;5.38;;
57071;SDS011;42956;51.366;11.298;2024-01-07T07:05:48;10.90;;;4.85;;
57071;SDS011;42956;51.366;11.298;2024-01-07T07:08:17;5.93;;;4.47;;
57071;SDS011;42956;51.366;11.298;2024-01-07T07:10:47;14.75;;;5.97;;
57071;SDS011;42956;51.366;11.298;2024-01-07T07:13:20;12.55;;;5.90;;
57071;SDS011;42956;51.366;11.298;2024-01-07T07:15:50;11.93;;;5.22;;
57071;SDS011;42956;51.366;11.298;2024-01-07T07:18:19;7.47;;;4.55;;
57071;SDS011;42956;51.366;11.298;2024-01-07T07:20:49;9.63;;;4.47;;
57071;SDS011;42956;51.366;11.298;2024-01-07T07:23:19;11.45;;;4.90;;
57071;SDS011;42956;51.366;11.298;2024-01-07T07:25:49;6.20;;;4.65;;
57071;SDS011;42956;51.366;11.298;2024-01-07T07:28:22;10.35;;;5.88;;
57071;SDS011;42956;51.366;11.298;2024-01-07T07:30:49;14.55;;;4.53;;
57071;SDS011;42956;51.366;11.298;2024-01-07T07:33:19;6.50;;;3.80;;
57071;SDS011;42956;51.366;11.298;2024-01-07T07:35:49;6.15;;;5.00;;
57071;SDS011;42956;51.366;11.298;2024-01-07T07:38:19;8.75;;;4.28;;
57071;SDS011;42956;51.366;11.298;2024-01-07T07:40:49;8.05;;;4.47;;
57071;SDS011;42956;51.366;11.298;2024-01-07T07:43:22;8.57;;;4.15;;
57071;SDS011;42956;51.366;11.298;2024-01-07T07:45:53;6.82;;;3.92;;
57071;SDS011;42956;51.366;11.298;2024-01-07T07:48:23;6.47;;;3.85;;
57071;SDS011;42956;51.366;11.298;2024-01-07T07:50:53;4.60;;;3.40;;
57071;SDS011;42956;51.366;11.298;2024-01-07T07:53:23;5.90;;;3.88;;
57071;SDS011;42956;51.366;11.298;2024-01-07T07:55:53;9.57;;;4.15;;
57071;SDS011;42956;51.366;11.298;2024-01-07T07:58:26;8.38;;;3.17;;
57071;SDS011;42956;51.366;11.298;2024-01-07T08:03:25;5.22;;;3.65;;
57071;SDS011;42956;51.366;11.298;2024-01-07T08:05:55;5.40;;;2.97;;
57071;SDS011;42956;51.366;11.298;2024-01-07T08:08:25;6.10;;;3.63;;
57071;SDS011;42956;51.366;11.298;2024-01-07T08:10:55;4.47;;;3.08;;
57071;SDS011;42956;51.366;11.298;2024-01-07T08:13:28;4.00;;;2.60;;
57071;SDS011;42956;51.366;11.298;2024-01-07T08:15:58;5.70;;;3.40;;
57071;SDS011;42956;51.366;11.298;2024-01-07T08:18:28;5.68;;;2.20;;
57071;SDS011;42956;51.366;11.298;2024-01-07T08:20:58;10.43;;;4.15;;
57071;SDS011;42956;51.366;11.298;2024-01-07T08:23:28;6.18;;;3.65;;
57071;SDS011;42956;51.366;11.298;2024-01-07T08:25:58;5.10;;;3.30;;
57071;SDS011;42956;51.366;11.298;2024-01-07T08:28:32;5.60;;;3.28;;
57071;SDS011;42956;51.366;11.298;2024-01-07T08:31:01;5.43;;;3.53;;
57071;SDS011;42956;51.366;11.298;2024-01-07T08:33:32;5.82;;;4.15;;
57071;SDS011;42956;51.366;11.298;2024-01-07T08:36:02;4.57;;;3.00;;
57071;SDS011;42956;51.366;11.298;2024-01-07T08:38:32;4.38;;;3.25;;
57071;SDS011;42956;51.366;11.298;2024-01-07T08:41:02;4.88;;;3.50;;
57071;SDS011;42956;51.366;11.298;2024-01-07T08:43:34;5.40;;;3.80;;
57071;SDS011;42956;51.366;11.298;2024-01-07T08:46:04;6.35;;;3.20;;
57071;SDS011;42956;51.366;11.298;2024-01-07T08:48:34;5.15;;;3.83;;
57071;SDS011;42956;51.366;11.298;2024-01-07T08:51:05;5.75;;;4.28;;
57071;SDS011;42956;51.366;11.298;2024-01-07T08:53:35;5.40;;;3.60;;
57071;SDS011;42956;51.366;11.298;2024-01-07T08:56:07;9.95;;;4.03;;
57071;SDS011;42956;51.366;11.298;2024-01-07T08:58:40;5.93;;;3.80;;
57071;SDS011;42956;51.366;11.298;2024-01-07T09:03:41;5.03;;;3.45;;
57071;SDS011;42956;51.366;11.298;2024-01-07T09:06:11;5.68;;;3.33;;
57071;SDS011;42956;51.366;11.298;2024-01-07T09:08:41;5.03;;;2.95;;
57071;SDS011;42956;51.366;11.298;2024-01-07T09:11:11;4.93;;;3.78;;
57071;SDS011;42956;51.366;11.298;2024-01-07T09:13:43;5.78;;;3.20;;
57071;SDS011;42956;51.366;11.298;2024-01-07T09:16:15;4.40;;;3.20;;
57071;SDS011;42956;51.366;11.298;2024-01-07T09:18:45;4.65;;;2.40;;
57071;SDS011;42956;51.366;11.298;2024-01-07T09:21:15;4.22;;;3.25;;
57071;SDS011;42956;51.366;11.298;2024-01-07T09:23:45;6.60;;;3.25;;
57071;SDS011;42956;51.366;11.298;2024-01-07T09:26:15;3.25;;;2.42;;
57071;SDS011;42956;51.366;11.298;2024-01-07T09:28:48;4.45;;;2.60;;
57071;SDS011;42956;51.366;11.298;2024-01-07T09:31:19;10.05;;;3.30;;
57071;SDS011;42956;51.366;11.298;2024-01-07T09:33:49;5.47;;;3.60;;
57071;SDS011;42956;51.366;11.298;2024-01-07T09:36:19;4.68;;;2.65;;
57071;SDS011;42956;51.366;11.298;2024-01-07T09:38:56;4.68;;;2.92;;
57071;SDS011;42956;51.366;11.298;2024-01-07T09:41:26;6.72;;;3.15;;
57071;SDS011;42956;51.366;11.298;2024-01-07T09:43:58;8.00;;;3.33;;
57071;SDS011;42956;51.366;11.298;2024-01-07T09:46:29;3.38;;;2.97;;
57071;SDS011;42956;51.366;11.298;2024-01-07T09:49:01;4.57;;;3.20;;
57071;SDS011;42956;51.366;11.298;2024-01-07T09:51:31;8.02;;;3.10;;
57071;SDS011;42956;51.366;11.298;2024-01-07T09:54:03;7.68;;;3.25;;
57071;SDS011;42956;51.366;11.298;2024-01-07T09:56:36;4.80;;;2.55;;
57071;SDS011;42956;51.366;11.298;2024-01-07T09:59:10;2.53;;;2.33;;
57071;SDS011;42956;51.366;11.298;2024-01-07T10:01:40;4.93;;;2.45;;
57071;SDS011;42956;51.366;11.298;2024-01-07T10:04:10;3.72;;;2.92;;
57071;SDS011;42956;51.366;11.298;2024-01-07T10:06:40;4.60;;;3.15;;
57071;SDS011;42956;51.366;11.298;2024-01-07T10:09:11;5.78;;;3.17;;
57071;SDS011;42956;51.366;11.298;2024-01-07T10:11:41;7.18;;;2.92;;
57071;SDS011;42956;51.366;11.298;2024-01-07T10:14:17;5.85;;;3.15;;
57071;SDS011;42956;51.366;11.298;2024-01-07T10:16:49;5.70;;;2.60;;
57071;SDS011;42956;51.366;11.298;2024-01-07T10:19:19;4.38;;;2.30;;
57071;SDS011;42956;51.366;11.298;2024-01-07T10:22:00;5.70;;;2.13;;
57071;SDS011;42956;51.366;11.298;2024-01-07T10:24:31;5.18;;;2.83;;
57071;SDS011;42956;51.366;11.298;2024-01-07T10:27:05;5.82;;;2.15;;
57071;SDS011;42956;51.366;11.298;2024-01-07T10:29:37;5.15;;;2.50;;
57071;SDS011;42956;51.366;11.298;2024-01-07T10:32:08;4.07;;;2.42;;
57071;SDS011;42956;51.366;11.298;2024-01-07T10:34:39;3.03;;;2.22;;
57071;SDS011;42956;51.366;11.298;2024-01-07T10:37:09;2.55;;;2.28;;
57071;SDS011;42956;51.366;11.298;2024-01-07T10:39:40;4.05;;;3.08;;
57071;SDS011;42956;51.366;11.298;2024-01-07T10:42:10;2.30;;;2.08;;
57071;SDS011;42956;51.366;11.298;2024-01-07T10:44:45;3.50;;;2.78;;
57071;SDS011;42956;51.366;11.298;2024-01-07T10:47:15;2.88;;;2.15;;
57071;SDS011;42956;51.366;11.298;2024-01-07T10:49:48;3.60;;;2.95;;
57071;SDS011;42956;51.366;11.298;2024-01-07T10:52:23;2.30;;;2.05;;
57071;SDS011;42956;51.366;11.298;2024-01-07T10:54:53;3.85;;;2.58;;
57071;SDS011;42956;51.366;11.298;2024-01-07T10:57:27;4.15;;;2.40;;
57071;SDS011;42956;51.366;11.298;2024-01-07T11:00:04;3.95;;;2.17;;
57071;SDS011;42956;51.366;11.298;2024-01-07T11:02:37;2.97;;;2.30;;
57071;SDS011;42956;51.366;11.298;2024-01-07T11:05:11;2.70;;;2.22;;
57071;SDS011;42956;51.366;11.298;2024-01-07T11:07:45;2.55;;;2.33;;
57071;SDS011;42956;51.366;11.298;2024-01-07T11:10:18;3.45;;;2.17;;
57071;SDS011;42956;51.366;11.298;2024-01-07T11:13:00;4.10;;;2.80;;
57071;SDS011;42956;51.366;11.298;2024-01-07T11:18:19;3.38;;;2.30;;
57071;SDS011;42956;51.366;11.298;2024-01-07T11:20:49;3.55;;;2.28;;
57071;SDS011;42956;51.366;11.298;2024-01-07T11:23:25;4.35;;;2.63;;
57071;SDS011;42956;51.366;11.298;2024-01-07T11:25:56;3.88;;;2.78;;
57071;SDS011;42956;51.366;11.298;2024-01-07T11:31:09;5.30;;;3.00;;
57071;SDS011;42956;51.366;11.298;2024-01-07T11:33:41;3.15;;;2.28;;
57071;SDS011;42956;51.366;11.298;2024-01-07T11:38:41;3.05;;;2.30;;
57071;SDS011;42956;51.366;11.298;2024-01-07T11:41:12;3.15;;;2.25;;
57071;SDS011;42956;51.366;11.298;2024-01-07T11:43:52;3.53;;;2.60;;
57071;SDS011;42956;51.366;11.298;2024-01-07T11:46:28;3.63;;;2.45;;
57071;SDS011;42956;51.366;11.298;2024-01-07T11:49:03;2.78;;;2.20;;
57071;SDS011;42956;51.366;11.298;2024-01-07T11:54:09;2.90;;;2.10;;
57071;SDS011;42956;51.366;11.298;2024-01-07T11:56:39;3.00;;;2.25;;
57071;SDS011;42956;51.366;11.298;2024-01-07T11:59:09;4.68;;;3.05;;
57071;SDS011;42956;51.366;11.298;2024-01-07T12:01:39;2.53;;;2.30;;
57071;SDS011;42956;51.366;11.298;2024-01-07T12:04:12;4.25;;;3.08;;
57071;SDS011;42956;51.366;11.298;2024-01-07T12:09:12;3.72;;;2.22;;
57071;SDS011;42956;51.366;11.298;2024-01-07T12:11:42;8.32;;;2.80;;
57071;SDS011;42956;51.366;11.298;2024-01-07T12:14:12;3.60;;;2.63;;
57071;SDS011;42956;51.366;11.298;2024-01-07T12:16:43;2.97;;;2.00;;
57071;SDS011;42956;51.366;11.298;2024-01-07T12:19:15;5.55;;;2.53;;
57071;SDS011;42956;51.366;11.298;2024-01-07T12:21:47;3.13;;;2.38;;
57071;SDS011;42956;51.366;11.298;2024-01-07T12:24:21;2.55;;;2.17;;
57071;SDS011;42956;51.366;11.298;2024-01-07T12:26:53;5.13;;;2.50;;
57071;SDS011;42956;51.366;11.298;2024-01-07T12:29:24;7.35;;;2.72;;
57071;SDS011;42956;51.366;11.298;2024-01-07T12:31:54;3.42;;;2.53;;
57071;SDS011;42956;51.366;11.298;2024-01-07T12:34:27;2.75;;;1.88;;
57071;SDS011;42956;51.366;11.298;2024-01-07T12:36:57;3.90;;;2.03;;
57071;SDS011;42956;51.366;11.298;2024-01-07T12:39:29;6.53;;;2.50;;
57071;SDS011;42956;51.366;11.298;2024-01-07T12:41:59;3.83;;;2.05;;
57071;SDS011;42956;51.366;11.298;2024-01-07T12:44:30;2.85;;;2.25;;
57071;SDS011;42956;51.366;11.298;2024-01-07T12:47:00;2.80;;;2.50;;
57071;SDS011;42956;51.366;11.298;2024-01-07T12:49:33;3.85;;;3.30;;
57071;SDS011;42956;51.366;11.298;2024-01-07T12:52:04;5.57;;;3.30;;
57071;SDS011;42956;51.366;11.298;2024-01-07T12:54:34;4.20;;;3.50;;
57071;SDS011;42956;51.366;11.298;2024-01-07T12:57:04;8.23;;;3.83;;
57071;SDS011;42956;51.366;11.298;2024-01-07T12:59:34;6.32;;;2.63;;
57071;SDS011;42956;51.366;11.298;2024-01-07T13:02:03;3.97;;;3.35;;
57071;SDS011;42956;51.366;11.298;2024-01-07T13:04:36;5.13;;;2.60;;
57071;SDS011;42956;51.366;11.298;2024-01-07T13:07:06;6.35;;;2.67;;
57071;SDS011;42956;51.366;11.298;2024-01-07T13:09:36;6.70;;;2.58;;
57071;SDS011;42956;51.366;11.298;2024-01-07T13:12:06;5.45;;;3.00;;
57071;SDS011;42956;51.366;11.298;2024-01-07T13:14:36;3.47;;;2.80;;
57071;SDS011;42956;51.366;11.298;2024-01-07T13:17:06;2.58;;;2.35;;
57071;SDS011;42956;51.366;11.298;2024-01-07T13:19:39;3.67;;;2.40;;
57071;SDS011;42956;51.366;11.298;2024-01-07T13:22:10;4.32;;;2.63;;
57071;SDS011;42956;51.366;11.298;2024-01-07T13:24:41;4.85;;;2.80;;
57071;SDS011;42956;51.366;11.298;2024-01-07T13:27:11;5.32;;;2.80;;
57071;SDS011;42956;51.366;11.298;2024-01-07T13:29:41;5.88;;;3.17;;
57071;SDS011;42956;51.366;11.298;2024-01-07T13:32:12;3.28;;;2.47;;
57071;SDS011;42956;51.366;11.298;2024-01-07T13:34:46;3.67;;;2.70;;
57071;SDS011;42956;51.366;11.298;2024-01-07T13:37:16;3.97;;;2.42;;
57071;SDS011;42956;51.366;11.298;2024-01-07T13:39:47;4.32;;;2.75;;
57071;SDS011;42956;51.366;11.298;2024-01-07T13:42:18;4.03;;;3.05;;
57071;SDS011;42956;51.366;11.298;2024-01-07T13:44:48;7.50;;;3.33;;
57071;SDS011;42956;51.366;11.298;2024-01-07T13:47:18;4.22;;;2.88;;
57071;SDS011;42956;51.366;11.298;2024-01-07T13:49:52;10.13;;;3.67;;
57071;SDS011;42956;51.366;11.298;2024-01-07T13:52:22;8.38;;;3.70;;
57071;SDS011;42956;51.366;11.298;2024-01-07T13:54:52;6.18;;;3.35;;
57071;SDS011;42956;51.366;11.298;2024-01-07T13:57:22;6.20;;;3.22;;
57071;SDS011;42956;51.366;11.298;2024-01-07T13:59:52;4.35;;;2.95;;
57071;SDS011;42956;51.366;11.298;2024-01-07T14:02:22;3.83;;;3.33;;
57071;SDS011;42956;51.366;11.298;2024-01-07T14:04:54;8.50;;;3.92;;
57071;SDS011;42956;51.366;11.298;2024-01-07T14:07:24;9.23;;;3.80;;
57071;SDS011;42956;51.366;11.298;2024-01-07T14:09:54;7.05;;;3.75;;
57071;SDS011;42956;51.366;11.298;2024-01-07T14:12:24;6.53;;;4.13;;
57071;SDS011;42956;51.366;11.298;2024-01-07T14:14:54;5.72;;;3.83;;
57071;SDS011;42956;51.366;11.298;2024-01-07T14:17:24;10.57;;;4.97;;
57071;SDS011;42956;51.366;11.298;2024-01-07T14:19:56;8.93;;;4.38;;
57071;SDS011;42956;51.366;11.298;2024-01-07T14:22:26;7.07;;;4.57;;
57071;SDS011;42956;51.366;11.298;2024-01-07T14:24:56;6.35;;;4.50;;
57071;SDS011;42956;51.366;11.298;2024-01-07T14:27:26;8.80;;;4.80;;
57071;SDS011;42956;51.366;11.298;2024-01-07T14:29:56;7.97;;;5.20;;
57071;SDS011;42956;51.366;11.298;2024-01-07T14:32:26;10.27;;;6.15;;
57071;SDS011;42956;51.366;11.298;2024-01-07T14:34:59;7.05;;;4.68;;
57071;SDS011;42956;51.366;11.298;2024-01-07T14:37:26;8.30;;;4.50;;
57071;SDS011;42956;51.366;11.298;2024-01-07T14:39:56;6.60;;;4.95;;
57071;SDS011;42956;51.366;11.298;2024-01-07T14:42:26;4.25;;;3.65;;
57071;SDS011;42956;51.366;11.298;2024-01-07T14:44:56;6.80;;;5.10;;
57071;SDS011;42956;51.366;11.298;2024-01-07T14:47:26;7.30;;;4.70;;
57071;SDS011;42956;51.366;11.298;2024-01-07T14:49:59;10.68;;;5.20;;
57071;SDS011;42956;51.366;11.298;2024-01-07T14:52:33;9.02;;;4.82;;
57071;SDS011;42956;51.366;11.298;2024-01-07T14:55:03;8.07;;;4.75;;
57071;SDS011;42956;51.366;11.298;2024-01-07T14:57:33;13.68;;;6.50;;
57071;SDS011;42956;51.366;11.298;2024-01-07T15:00:04;9.10;;;5.03;;
57071;SDS011;42956;51.366;11.298;2024-01-07T15:02:34;7.85;;;4.78;;
57071;SDS011;42956;51.366;11.298;2024-01-07T15:05:08;8.40;;;5.13;;
57071;SDS011;42956;51.366;11.298;2024-01-07T15:07:38;9.25;;;5.47;;
57071;SDS011;42956;51.366;11.298;2024-01-07T15:10:08;8.90;;;4.90;;
57071;SDS011;42956;51.366;11.298;2024-01-07T15:12:38;8.70;;;4.72;;
57071;SDS011;42956;51.366;11.298;2024-01-07T15:15:17;10.57;;;5.80;;
57071;SDS011;42956;51.366;11.298;2024-01-07T15:17:49;12.05;;;5.93;;
57071;SDS011;42956;51.366;11.298;2024-01-07T15:20:22;10.88;;;4.60;;
57071;SDS011;42956;51.366;11.298;2024-01-07T15:22:52;8.25;;;5.75;;
57071;SDS011;42956;51.366;11.298;2024-01-07T15:25:22;12.95;;;7.63;;
57071;SDS011;42956;51.366;11.298;2024-01-07T15:27:53;11.40;;;5.68;;